sensor_id;sensor_type;location;lat;lon;timestamp;temperature;humidity
43561;DHT22;32305;46.410;17.394;2022-12-07T00:01:22;19.80;44.20
43561;DHT22;32305;46.410;17.394;2022-12-07T00:03:52;19.80;44.20
43561;DHT22;32305;46.410;17.394;2022-12-07T00:06:20;19.80;44.20
43561;DHT22;32305;46.410;17.394;2022-12-07T00:08:47;19.80;44.20
43561;DHT22;32305;46.410;17.394;2022-12-07T00:11:19;19.80;44.20
43561;DHT22;32305;46.410;17.394;2022-12-07T00:13:51;19.80;44.20
43561;DHT22;32305;46.410;17.394;2022-12-07T00:16:20;19.70;44.10
43561;DHT22;32305;46.410;17.394;2022-12-07T00:18:47;19.70;44.10
43561;DHT22;32305;46.410;17.394;2022-12-07T00:21:24;19.70;44.10
43561;DHT22;32305;46.410;17.394;2022-12-07T00:23:52;19.70;44.00
43561;DHT22;32305;46.410;17.394;2022-12-07T00:26:31;19.80;44.00
43561;DHT22;32305;46.410;17.394;2022-12-07T00:29:01;19.80;43.90
43561;DHT22;32305;46.410;17.394;2022-12-07T00:31:32;19.80;43.90
43561;DHT22;32305;46.410;17.394;2022-12-07T00:34:00;19.80;43.90
43561;DHT22;32305;46.410;17.394;2022-12-07T00:36:28;19.80;43.80
43561;DHT22;32305;46.410;17.394;2022-12-07T00:38:57;19.80;43.80
43561;DHT22;32305;46.410;17.394;2022-12-07T00:41:27;19.80;43.80
43561;DHT22;32305;46.410;17.394;2022-12-07T00:43:54;19.80;43.80
43561;DHT22;32305;46.410;17.394;2022-12-07T00:46:22;19.80;43.80
43561;DHT22;32305;46.410;17.394;2022-12-07T00:48:50;19.80;43.70
43561;DHT22;32305;46.410;17.394;2022-12-07T00:51:20;19.70;43.70
43561;DHT22;32305;46.410;17.394;2022-12-07T00:53:47;19.80;43.70
43561;DHT22;32305;46.410;17.394;2022-12-07T00:56:20;19.70;43.70
43561;DHT22;32305;46.410;17.394;2022-12-07T00:58:56;19.70;43.70
43561;DHT22;32305;46.410;17.394;2022-12-07T01:01:28;19.70;43.70
43561;DHT22;32305;46.410;17.394;2022-12-07T01:03:56;19.70;43.60
43561;DHT22;32305;46.410;17.394;2022-12-07T01:06:24;19.70;43.60
43561;DHT22;32305;46.410;17.394;2022-12-07T01:08:51;19.70;43.60
43561;DHT22;32305;46.410;17.394;2022-12-07T01:11:21;19.70;43.60
43561;DHT22;32305;46.410;17.394;2022-12-07T01:13:53;19.70;43.60
43561;DHT22;32305;46.410;17.394;2022-12-07T01:16:21;19.70;43.60
43561;DHT22;32305;46.410;17.394;2022-12-07T01:18:52;19.70;43.60
43561;DHT22;32305;46.410;17.394;2022-12-07T01:21:28;19.70;43.60
43561;DHT22;32305;46.410;17.394;2022-12-07T01:23:57;19.70;43.60
43561;DHT22;32305;46.410;17.394;2022-12-07T01:26:26;19.70;43.60
43561;DHT22;32305;46.410;17.394;2022-12-07T01:28:54;19.70;43.60
43561;DHT22;32305;46.410;17.394;2022-12-07T01:31:23;19.70;43.60
43561;DHT22;32305;46.410;17.394;2022-12-07T01:33:53;19.70;43.50
43561;DHT22;32305;46.410;17.394;2022-12-07T01:36:25;19.70;43.50
43561;DHT22;32305;46.410;17.394;2022-12-07T01:38:56;19.70;43.50
43561;DHT22;32305;46.410;17.394;2022-12-07T01:41:26;19.70;43.50
43561;DHT22;32305;46.410;17.394;2022-12-07T01:44:22;19.70;44.10
43561;DHT22;32305;46.410;17.394;2022-12-07T01:46:54;19.70;43.50
43561;DHT22;32305;46.410;17.394;2022-12-07T01:49:45;19.70;43.50
43561;DHT22;32305;46.410;17.394;2022-12-07T01:52:27;19.70;43.50
43561;DHT22;32305;46.410;17.394;2022-12-07T01:54:58;19.70;43.50
43561;DHT22;32305;46.410;17.394;2022-12-07T01:57:27;19.70;43.50
43561;DHT22;32305;46.410;17.394;2022-12-07T01:59:55;19.70;43.50
43561;DHT22;32305;46.410;17.394;2022-12-07T02:02:28;19.70;43.50
43561;DHT22;32305;46.410;17.394;2022-12-07T02:04:59;19.70;43.40
43561;DHT22;32305;46.410;17.394;2022-12-07T02:07:28;19.70;43.40
43561;DHT22;32305;46.410;17.394;2022-12-07T02:09:55;19.70;43.40
43561;DHT22;32305;46.410;17.394;2022-12-07T02:12:23;19.70;43.40
43561;DHT22;32305;46.410;17.394;2022-12-07T02:14:51;19.70;43.50
43561;DHT22;32305;46.410;17.394;2022-12-07T02:17:32;19.70;43.50
43561;DHT22;32305;46.410;17.394;2022-12-07T02:20:28;19.70;43.50
43561;DHT22;32305;46.410;17.394;2022-12-07T02:23:38;19.70;43.40
43561;DHT22;32305;46.410;17.394;2022-12-07T02:26:32;19.70;43.40
43561;DHT22;32305;46.410;17.394;2022-12-07T02:29:20;19.60;43.40
43561;DHT22;32305;46.410;17.394;2022-12-07T02:32:13;19.60;43.40
43561;DHT22;32305;46.410;17.394;2022-12-07T02:34:55;19.60;43.40
43561;DHT22;32305;46.410;17.394;2022-12-07T02:37:39;19.60;43.40
43561;DHT22;32305;46.410;17.394;2022-12-07T02:40:18;19.60;43.40
43561;DHT22;32305;46.410;17.394;2022-12-07T02:42:54;19.60;43.30
43561;DHT22;32305;46.410;17.394;2022-12-07T02:45:23;19.70;43.30
43561;DHT22;32305;46.410;17.394;2022-12-07T02:47:53;19.70;43.20
43561;DHT22;32305;46.410;17.394;2022-12-07T02:50:22;19.70;43.10
43561;DHT22;32305;46.410;17.394;2022-12-07T02:52:49;19.70;43.10
43561;DHT22;32305;46.410;17.394;2022-12-07T02:55:19;19.70;43.10
43561;DHT22;32305;46.410;17.394;2022-12-07T02:58:06;19.70;43.00
43561;DHT22;32305;46.410;17.394;2022-12-07T03:00:54;19.70;43.00
43561;DHT22;32305;46.410;17.394;2022-12-07T03:03:25;19.70;43.00
43561;DHT22;32305;46.410;17.394;2022-12-07T03:06:08;19.70;43.00
43561;DHT22;32305;46.410;17.394;2022-12-07T03:08:56;19.70;43.00
43561;DHT22;32305;46.410;17.394;2022-12-07T03:11:35;19.70;43.00
43561;DHT22;32305;46.410;17.394;2022-12-07T03:14:18;19.70;43.00
43561;DHT22;32305;46.410;17.394;2022-12-07T03:16:57;19.70;43.00
43561;DHT22;32305;46.410;17.394;2022-12-07T03:19:27;19.70;43.00
43561;DHT22;32305;46.410;17.394;2022-12-07T03:22:01;19.60;42.90
43561;DHT22;32305;46.410;17.394;2022-12-07T03:24:35;19.70;43.00
43561;DHT22;32305;46.410;17.394;2022-12-07T03:27:15;19.70;43.00
43561;DHT22;32305;46.410;17.394;2022-12-07T03:29:51;19.70;43.00
43561;DHT22;32305;46.410;17.394;2022-12-07T03:32:27;19.70;43.00
43561;DHT22;32305;46.410;17.394;2022-12-07T03:35:04;19.70;43.00
43561;DHT22;32305;46.410;17.394;2022-12-07T03:38:35;19.70;42.90
43561;DHT22;32305;46.410;17.394;2022-12-07T03:43:35;19.60;42.90
43561;DHT22;32305;46.410;17.394;2022-12-07T03:46:21;19.60;42.90
43561;DHT22;32305;46.410;17.394;2022-12-07T03:49:11;19.70;43.00
43561;DHT22;32305;46.410;17.394;2022-12-07T03:51:56;19.60;42.90
43561;DHT22;32305;46.410;17.394;2022-12-07T03:54:31;19.60;42.90
43561;DHT22;32305;46.410;17.394;2022-12-07T03:57:01;19.60;42.80
43561;DHT22;32305;46.410;17.394;2022-12-07T03:59:29;19.60;42.90
43561;DHT22;32305;46.410;17.394;2022-12-07T04:02:02;19.60;42.80
43561;DHT22;32305;46.410;17.394;2022-12-07T04:04:29;19.60;42.80
43561;DHT22;32305;46.410;17.394;2022-12-07T04:06:57;19.60;42.80
43561;DHT22;32305;46.410;17.394;2022-12-07T04:09:24;19.60;42.80
43561;DHT22;32305;46.410;17.394;2022-12-07T04:11:51;19.60;42.80
43561;DHT22;32305;46.410;17.394;2022-12-07T04:14:18;19.60;42.80
43561;DHT22;32305;46.410;17.394;2022-12-07T04:16:54;19.60;42.80
43561;DHT22;32305;46.410;17.394;2022-12-07T04:19:26;19.60;42.80
43561;DHT22;32305;46.410;17.394;2022-12-07T04:21:53;19.60;42.80
43561;DHT22;32305;46.410;17.394;2022-12-07T04:24:21;19.60;42.70
43561;DHT22;32305;46.410;17.394;2022-12-07T04:26:48;19.60;42.70
43561;DHT22;32305;46.410;17.394;2022-12-07T04:29:16;19.60;42.70
43561;DHT22;32305;46.410;17.394;2022-12-07T04:31:44;19.60;42.70
43561;DHT22;32305;46.410;17.394;2022-12-07T04:34:12;19.60;42.80
43561;DHT22;32305;46.410;17.394;2022-12-07T04:36:40;19.60;42.80
43561;DHT22;32305;46.410;17.394;2022-12-07T04:39:09;19.60;42.80
43561;DHT22;32305;46.410;17.394;2022-12-07T04:41:40;19.60;42.80
43561;DHT22;32305;46.410;17.394;2022-12-07T04:44:07;19.60;42.80
43561;DHT22;32305;46.410;17.394;2022-12-07T04:46:35;19.60;42.80
43561;DHT22;32305;46.410;17.394;2022-12-07T04:49:02;19.60;42.80
43561;DHT22;32305;46.410;17.394;2022-12-07T04:51:29;19.60;42.80
43561;DHT22;32305;46.410;17.394;2022-12-07T04:53:56;19.60;42.80
43561;DHT22;32305;46.410;17.394;2022-12-07T04:56:24;19.60;43.30
43561;DHT22;32305;46.410;17.394;2022-12-07T04:58:52;19.50;42.70
43561;DHT22;32305;46.410;17.394;2022-12-07T05:01:21;19.60;42.70
43561;DHT22;32305;46.410;17.394;2022-12-07T05:03:48;19.60;42.70
43561;DHT22;32305;46.410;17.394;2022-12-07T05:06:16;19.60;42.60
43561;DHT22;32305;46.410;17.394;2022-12-07T05:08:43;19.60;42.60
43561;DHT22;32305;46.410;17.394;2022-12-07T05:11:12;19.60;42.60
43561;DHT22;32305;46.410;17.394;2022-12-07T05:13:59;19.60;42.50
43561;DHT22;32305;46.410;17.394;2022-12-07T05:16:26;19.60;42.50
43561;DHT22;32305;46.410;17.394;2022-12-07T05:18:53;19.60;42.50
43561;DHT22;32305;46.410;17.394;2022-12-07T05:21:21;19.60;42.50
43561;DHT22;32305;46.410;17.394;2022-12-07T05:23:48;19.60;42.40
43561;DHT22;32305;46.410;17.394;2022-12-07T05:26:15;19.60;42.40
43561;DHT22;32305;46.410;17.394;2022-12-07T05:28:42;19.60;42.40
43561;DHT22;32305;46.410;17.394;2022-12-07T05:31:10;19.60;42.40
43561;DHT22;32305;46.410;17.394;2022-12-07T05:33:37;19.60;42.40
43561;DHT22;32305;46.410;17.394;2022-12-07T05:36:04;19.60;42.30
43561;DHT22;32305;46.410;17.394;2022-12-07T05:38:33;19.60;42.20
43561;DHT22;32305;46.410;17.394;2022-12-07T05:41:04;19.60;42.00
43561;DHT22;32305;46.410;17.394;2022-12-07T05:43:32;19.60;41.80
43561;DHT22;32305;46.410;17.394;2022-12-07T05:45:59;19.60;41.70
43561;DHT22;32305;46.410;17.394;2022-12-07T05:48:27;19.70;41.70
43561;DHT22;32305;46.410;17.394;2022-12-07T05:50:54;19.70;41.60
43561;DHT22;32305;46.410;17.394;2022-12-07T05:53:21;19.70;41.60
43561;DHT22;32305;46.410;17.394;2022-12-07T05:55:49;19.60;41.60
43561;DHT22;32305;46.410;17.394;2022-12-07T05:58:16;19.60;41.70
43561;DHT22;32305;46.410;17.394;2022-12-07T06:01:03;19.60;41.80
43561;DHT22;32305;46.410;17.394;2022-12-07T06:03:30;19.60;41.80
43561;DHT22;32305;46.410;17.394;2022-12-07T06:05:57;19.50;41.70
43561;DHT22;32305;46.410;17.394;2022-12-07T06:08:24;19.50;41.70
43561;DHT22;32305;46.410;17.394;2022-12-07T06:10:51;19.50;41.70
43561;DHT22;32305;46.410;17.394;2022-12-07T06:13:38;19.50;41.70
43561;DHT22;32305;46.410;17.394;2022-12-07T06:16:12;19.50;41.70
43561;DHT22;32305;46.410;17.394;2022-12-07T06:18:40;19.50;41.70
43561;DHT22;32305;46.410;17.394;2022-12-07T06:21:07;19.50;41.60
43561;DHT22;32305;46.410;17.394;2022-12-07T06:23:34;19.50;41.70
43561;DHT22;32305;46.410;17.394;2022-12-07T06:26:01;19.50;41.80
43561;DHT22;32305;46.410;17.394;2022-12-07T06:28:28;19.50;41.90
43561;DHT22;32305;46.410;17.394;2022-12-07T06:30:59;19.50;42.00
43561;DHT22;32305;46.410;17.394;2022-12-07T06:33:27;19.50;42.10
43561;DHT22;32305;46.410;17.394;2022-12-07T06:35:55;19.60;42.20
43561;DHT22;32305;46.410;17.394;2022-12-07T06:38:22;19.60;42.20
43561;DHT22;32305;46.410;17.394;2022-12-07T06:40:49;19.60;42.10
43561;DHT22;32305;46.410;17.394;2022-12-07T06:43:16;19.60;42.20
43561;DHT22;32305;46.410;17.394;2022-12-07T06:45:43;19.60;42.20
43561;DHT22;32305;46.410;17.394;2022-12-07T06:48:10;19.70;42.30
43561;DHT22;32305;46.410;17.394;2022-12-07T06:50:37;19.70;42.30
43561;DHT22;32305;46.410;17.394;2022-12-07T06:53:05;19.70;42.30
43561;DHT22;32305;46.410;17.394;2022-12-07T06:55:32;19.60;42.00
43561;DHT22;32305;46.410;17.394;2022-12-07T06:57:59;19.70;41.90
43561;DHT22;32305;46.410;17.394;2022-12-07T07:00:28;19.70;41.80
43561;DHT22;32305;46.410;17.394;2022-12-07T07:02:56;19.70;41.70
43561;DHT22;32305;46.410;17.394;2022-12-07T07:05:23;19.70;41.60
43561;DHT22;32305;46.410;17.394;2022-12-07T07:07:50;19.80;41.60
43561;DHT22;32305;46.410;17.394;2022-12-07T07:10:38;19.80;41.50
43561;DHT22;32305;46.410;17.394;2022-12-07T07:13:05;19.80;41.60
43561;DHT22;32305;46.410;17.394;2022-12-07T07:15:33;19.80;41.60
43561;DHT22;32305;46.410;17.394;2022-12-07T07:18:00;19.80;41.70
43561;DHT22;32305;46.410;17.394;2022-12-07T07:20:33;19.80;41.80
43561;DHT22;32305;46.410;17.394;2022-12-07T07:23:00;19.90;41.90
43561;DHT22;32305;46.410;17.394;2022-12-07T07:25:28;19.90;42.30
43561;DHT22;32305;46.410;17.394;2022-12-07T07:27:55;19.90;42.60
43561;DHT22;32305;46.410;17.394;2022-12-07T07:30:22;20.00;42.80
43561;DHT22;32305;46.410;17.394;2022-12-07T07:32:49;20.00;42.90
43561;DHT22;32305;46.410;17.394;2022-12-07T07:35:17;20.10;43.10
43561;DHT22;32305;46.410;17.394;2022-12-07T07:37:44;20.10;43.10
43561;DHT22;32305;46.410;17.394;2022-12-07T07:40:11;20.20;43.00
43561;DHT22;32305;46.410;17.394;2022-12-07T07:42:38;20.20;43.00
43561;DHT22;32305;46.410;17.394;2022-12-07T07:45:06;20.30;43.10
43561;DHT22;32305;46.410;17.394;2022-12-07T07:47:33;20.30;42.90
43561;DHT22;32305;46.410;17.394;2022-12-07T07:50:00;20.40;42.90
43561;DHT22;32305;46.410;17.394;2022-12-07T07:52:28;20.40;42.90
43561;DHT22;32305;46.410;17.394;2022-12-07T07:54:55;20.50;42.90
43561;DHT22;32305;46.410;17.394;2022-12-07T07:57:22;20.50;42.80
43561;DHT22;32305;46.410;17.394;2022-12-07T07:59:49;20.50;42.70
43561;DHT22;32305;46.410;17.394;2022-12-07T08:02:19;20.50;42.80
43561;DHT22;32305;46.410;17.394;2022-12-07T08:04:46;20.60;42.80
43561;DHT22;32305;46.410;17.394;2022-12-07T08:07:14;20.60;42.80
43561;DHT22;32305;46.410;17.394;2022-12-07T08:09:42;20.60;42.80
43561;DHT22;32305;46.410;17.394;2022-12-07T08:12:10;20.60;42.60
43561;DHT22;32305;46.410;17.394;2022-12-07T08:14:37;20.70;42.40
43561;DHT22;32305;46.410;17.394;2022-12-07T08:17:04;20.70;42.40
43561;DHT22;32305;46.410;17.394;2022-12-07T08:19:31;20.70;42.30
43561;DHT22;32305;46.410;17.394;2022-12-07T08:21:58;20.80;42.30
43561;DHT22;32305;46.410;17.394;2022-12-07T08:24:26;20.70;42.20
43561;DHT22;32305;46.410;17.394;2022-12-07T08:26:53;20.80;42.00
43561;DHT22;32305;46.410;17.394;2022-12-07T08:29:20;20.80;41.90
43561;DHT22;32305;46.410;17.394;2022-12-07T08:31:48;20.80;41.90
43561;DHT22;32305;46.410;17.394;2022-12-07T08:34:15;20.90;41.90
43561;DHT22;32305;46.410;17.394;2022-12-07T08:36:42;20.80;41.80
43561;DHT22;32305;46.410;17.394;2022-12-07T08:39:09;20.90;41.90
43561;DHT22;32305;46.410;17.394;2022-12-07T08:41:56;20.90;41.90
43561;DHT22;32305;46.410;17.394;2022-12-07T08:44:24;20.90;41.90
43561;DHT22;32305;46.410;17.394;2022-12-07T08:46:56;21.00;41.80
43561;DHT22;32305;46.410;17.394;2022-12-07T08:49:37;21.00;41.80
43561;DHT22;32305;46.410;17.394;2022-12-07T08:52:06;21.00;41.90
43561;DHT22;32305;46.410;17.394;2022-12-07T08:54:36;21.00;41.80
43561;DHT22;32305;46.410;17.394;2022-12-07T08:57:05;21.00;42.40
43561;DHT22;32305;46.410;17.394;2022-12-07T08:59:34;21.00;41.90
43561;DHT22;32305;46.410;17.394;2022-12-07T09:02:02;21.10;42.00
43561;DHT22;32305;46.410;17.394;2022-12-07T09:04:29;21.10;41.90
43561;DHT22;32305;46.410;17.394;2022-12-07T09:06:56;21.10;42.10
43561;DHT22;32305;46.410;17.394;2022-12-07T09:09:24;21.20;42.00
43561;DHT22;32305;46.410;17.394;2022-12-07T09:11:51;21.20;41.80
43561;DHT22;32305;46.410;17.394;2022-12-07T09:14:18;21.20;41.70
43561;DHT22;32305;46.410;17.394;2022-12-07T09:16:46;21.30;41.70
43561;DHT22;32305;46.410;17.394;2022-12-07T09:19:13;21.30;41.60
43561;DHT22;32305;46.410;17.394;2022-12-07T09:21:40;21.30;41.50
43561;DHT22;32305;46.410;17.394;2022-12-07T09:24:08;21.40;41.40
43561;DHT22;32305;46.410;17.394;2022-12-07T09:26:35;21.40;41.40
43561;DHT22;32305;46.410;17.394;2022-12-07T09:29:03;21.40;41.20
43561;DHT22;32305;46.410;17.394;2022-12-07T09:31:30;21.40;41.10
43561;DHT22;32305;46.410;17.394;2022-12-07T09:34:00;21.50;41.00
43561;DHT22;32305;46.410;17.394;2022-12-07T09:36:28;21.50;41.00
43561;DHT22;32305;46.410;17.394;2022-12-07T09:38:55;21.50;41.00
43561;DHT22;32305;46.410;17.394;2022-12-07T09:41:24;21.60;41.00
43561;DHT22;32305;46.410;17.394;2022-12-07T09:43:53;21.60;40.90
43561;DHT22;32305;46.410;17.394;2022-12-07T09:46:25;21.60;40.90
43561;DHT22;32305;46.410;17.394;2022-12-07T09:48:52;21.70;40.90
43561;DHT22;32305;46.410;17.394;2022-12-07T09:51:21;21.70;40.80
43561;DHT22;32305;46.410;17.394;2022-12-07T09:53:53;21.70;40.70
43561;DHT22;32305;46.410;17.394;2022-12-07T09:56:22;21.70;40.70
43561;DHT22;32305;46.410;17.394;2022-12-07T09:58:58;21.80;40.60
43561;DHT22;32305;46.410;17.394;2022-12-07T10:01:29;21.80;40.60
43561;DHT22;32305;46.410;17.394;2022-12-07T10:04:15;21.80;40.50
43561;DHT22;32305;46.410;17.394;2022-12-07T10:06:43;21.90;40.60
43561;DHT22;32305;46.410;17.394;2022-12-07T10:09:16;21.90;40.50
43561;DHT22;32305;46.410;17.394;2022-12-07T10:12:08;21.90;40.40
43561;DHT22;32305;46.410;17.394;2022-12-07T10:14:39;21.90;40.40
43561;DHT22;32305;46.410;17.394;2022-12-07T10:17:39;22.00;40.50
43561;DHT22;32305;46.410;17.394;2022-12-07T10:20:18;22.00;40.50
43561;DHT22;32305;46.410;17.394;2022-12-07T10:23:01;22.00;40.50
43561;DHT22;32305;46.410;17.394;2022-12-07T10:25:35;22.00;40.40
43561;DHT22;32305;46.410;17.394;2022-12-07T10:28:13;22.00;40.40
43561;DHT22;32305;46.410;17.394;2022-12-07T10:30:51;22.10;40.40
43561;DHT22;32305;46.410;17.394;2022-12-07T10:33:32;22.00;40.30
43561;DHT22;32305;46.410;17.394;2022-12-07T10:36:09;22.10;40.30
43561;DHT22;32305;46.410;17.394;2022-12-07T10:39:03;22.10;40.20
43561;DHT22;32305;46.410;17.394;2022-12-07T10:41:31;22.10;40.20
43561;DHT22;32305;46.410;17.394;2022-12-07T10:43:58;22.20;40.20
43561;DHT22;32305;46.410;17.394;2022-12-07T10:47:01;22.20;40.20
43561;DHT22;32305;46.410;17.394;2022-12-07T10:50:02;22.20;40.20
43561;DHT22;32305;46.410;17.394;2022-12-07T10:52:58;22.20;40.10
43561;DHT22;32305;46.410;17.394;2022-12-07T10:56:02;22.20;40.00
43561;DHT22;32305;46.410;17.394;2022-12-07T10:58:53;22.30;40.10
43561;DHT22;32305;46.410;17.394;2022-12-07T11:01:50;22.30;40.00
43561;DHT22;32305;46.410;17.394;2022-12-07T11:04:43;22.40;40.10
43561;DHT22;32305;46.410;17.394;2022-12-07T11:07:35;22.30;39.90
43561;DHT22;32305;46.410;17.394;2022-12-07T11:10:18;22.40;40.00
43561;DHT22;32305;46.410;17.394;2022-12-07T11:16:21;22.40;39.90
43561;DHT22;32305;46.410;17.394;2022-12-07T11:19:06;22.40;39.70
43561;DHT22;32305;46.410;17.394;2022-12-07T11:21:53;22.40;39.50
43561;DHT22;32305;46.410;17.394;2022-12-07T11:24:49;22.50;39.50
43561;DHT22;32305;46.410;17.394;2022-12-07T11:27:28;22.50;39.30
43561;DHT22;32305;46.410;17.394;2022-12-07T11:30:18;22.50;39.30
43561;DHT22;32305;46.410;17.394;2022-12-07T11:33:20;22.40;39.20
43561;DHT22;32305;46.410;17.394;2022-12-07T11:36:02;22.40;39.20
43561;DHT22;32305;46.410;17.394;2022-12-07T11:38:52;22.40;39.30
43561;DHT22;32305;46.410;17.394;2022-12-07T11:41:25;22.40;39.30
43561;DHT22;32305;46.410;17.394;2022-12-07T11:44:01;22.40;39.40
43561;DHT22;32305;46.410;17.394;2022-12-07T11:46:48;22.40;39.40
43561;DHT22;32305;46.410;17.394;2022-12-07T11:49:34;22.40;39.60
43561;DHT22;32305;46.410;17.394;2022-12-07T11:52:06;22.40;39.60
43561;DHT22;32305;46.410;17.394;2022-12-07T11:54:41;22.40;39.70
43561;DHT22;32305;46.410;17.394;2022-12-07T11:57:20;22.40;39.70
43561;DHT22;32305;46.410;17.394;2022-12-07T11:59:52;22.40;39.80
43561;DHT22;32305;46.410;17.394;2022-12-07T12:02:31;22.50;39.80
43561;DHT22;32305;46.410;17.394;2022-12-07T12:05:19;22.50;39.80
43561;DHT22;32305;46.410;17.394;2022-12-07T12:08:05;22.50;39.70
43561;DHT22;32305;46.410;17.394;2022-12-07T12:11:36;22.50;39.60
43561;DHT22;32305;46.410;17.394;2022-12-07T12:17:40;22.50;39.70
43561;DHT22;32305;46.410;17.394;2022-12-07T12:23:21;22.60;39.60
43561;DHT22;32305;46.410;17.394;2022-12-07T12:25:51;22.60;40.20
43561;DHT22;32305;46.410;17.394;2022-12-07T12:28:27;22.60;39.70
43561;DHT22;32305;46.410;17.394;2022-12-07T12:31:24;22.60;39.80
43561;DHT22;32305;46.410;17.394;2022-12-07T12:33:56;22.60;39.70
43561;DHT22;32305;46.410;17.394;2022-12-07T12:36:45;22.70;39.90
43561;DHT22;32305;46.410;17.394;2022-12-07T12:39:17;22.60;39.90
43561;DHT22;32305;46.410;17.394;2022-12-07T12:41:56;22.70;40.00
43561;DHT22;32305;46.410;17.394;2022-12-07T12:44:40;22.70;40.00
43561;DHT22;32305;46.410;17.394;2022-12-07T12:47:41;22.70;40.00
43561;DHT22;32305;46.410;17.394;2022-12-07T12:50:29;22.70;40.00
43561;DHT22;32305;46.410;17.394;2022-12-07T12:53:02;22.70;40.00
43561;DHT22;32305;46.410;17.394;2022-12-07T12:58:38;22.70;40.20
43561;DHT22;32305;46.410;17.394;2022-12-07T13:01:33;22.70;40.20
43561;DHT22;32305;46.410;17.394;2022-12-07T13:04:24;22.60;40.00
43561;DHT22;32305;46.410;17.394;2022-12-07T13:06:52;22.60;40.40
43561;DHT22;32305;46.410;17.394;2022-12-07T13:09:28;22.60;39.90
43561;DHT22;32305;46.410;17.394;2022-12-07T13:15:36;22.60;40.10
43561;DHT22;32305;46.410;17.394;2022-12-07T13:18:35;22.60;40.10
43561;DHT22;32305;46.410;17.394;2022-12-07T13:24:12;22.60;40.30
43561;DHT22;32305;46.410;17.394;2022-12-07T13:26:43;22.60;40.20
43561;DHT22;32305;46.410;17.394;2022-12-07T13:29:14;22.60;40.20
43561;DHT22;32305;46.410;17.394;2022-12-07T13:31:52;22.60;40.10
43561;DHT22;32305;46.410;17.394;2022-12-07T13:34:33;22.60;40.00
43561;DHT22;32305;46.410;17.394;2022-12-07T13:37:27;22.50;39.90
43561;DHT22;32305;46.410;17.394;2022-12-07T13:40:22;22.50;39.90
43561;DHT22;32305;46.410;17.394;2022-12-07T13:42:57;22.50;40.10
43561;DHT22;32305;46.410;17.394;2022-12-07T13:45:29;22.50;40.10
43561;DHT22;32305;46.410;17.394;2022-12-07T13:48:30;22.50;40.10
43561;DHT22;32305;46.410;17.394;2022-12-07T13:51:02;22.50;40.10
43561;DHT22;32305;46.410;17.394;2022-12-07T13:53:30;22.50;40.10
43561;DHT22;32305;46.410;17.394;2022-12-07T13:56:01;22.50;40.20
43561;DHT22;32305;46.410;17.394;2022-12-07T13:58:30;22.50;40.30
43561;DHT22;32305;46.410;17.394;2022-12-07T14:00:58;22.50;40.40
43561;DHT22;32305;46.410;17.394;2022-12-07T14:03:34;22.50;40.60
43561;DHT22;32305;46.410;17.394;2022-12-07T14:06:13;22.50;40.60
43561;DHT22;32305;46.410;17.394;2022-12-07T14:08:42;22.50;40.70
43561;DHT22;32305;46.410;17.394;2022-12-07T14:11:19;22.50;40.70
43561;DHT22;32305;46.410;17.394;2022-12-07T14:13:56;22.50;40.70
43561;DHT22;32305;46.410;17.394;2022-12-07T14:16:30;22.50;40.70
43561;DHT22;32305;46.410;17.394;2022-12-07T14:18:59;22.50;40.60
43561;DHT22;32305;46.410;17.394;2022-12-07T14:21:33;22.50;40.60
43561;DHT22;32305;46.410;17.394;2022-12-07T14:24:16;22.50;40.60
43561;DHT22;32305;46.410;17.394;2022-12-07T14:26:46;22.50;40.60
43561;DHT22;32305;46.410;17.394;2022-12-07T14:29:31;22.50;40.60
43561;DHT22;32305;46.410;17.394;2022-12-07T14:32:21;22.50;40.70
43561;DHT22;32305;46.410;17.394;2022-12-07T14:34:57;22.40;40.90
43561;DHT22;32305;46.410;17.394;2022-12-07T14:37:24;22.40;41.00
43561;DHT22;32305;46.410;17.394;2022-12-07T14:39:52;22.40;41.00
43561;DHT22;32305;46.410;17.394;2022-12-07T14:42:20;22.40;41.10
43561;DHT22;32305;46.410;17.394;2022-12-07T14:44:48;22.40;41.20
43561;DHT22;32305;46.410;17.394;2022-12-07T14:47:15;22.40;41.20
43561;DHT22;32305;46.410;17.394;2022-12-07T14:50:02;22.40;41.20
43561;DHT22;32305;46.410;17.394;2022-12-07T14:52:33;22.40;41.30
43561;DHT22;32305;46.410;17.394;2022-12-07T14:55:28;22.40;41.40
43561;DHT22;32305;46.410;17.394;2022-12-07T14:57:56;22.40;41.50
43561;DHT22;32305;46.410;17.394;2022-12-07T15:00:25;22.40;41.40
43561;DHT22;32305;46.410;17.394;2022-12-07T15:02:53;22.40;41.50
43561;DHT22;32305;46.410;17.394;2022-12-07T15:05:21;22.40;41.50
43561;DHT22;32305;46.410;17.394;2022-12-07T15:07:48;22.40;41.50
43561;DHT22;32305;46.410;17.394;2022-12-07T15:10:20;22.40;41.50
43561;DHT22;32305;46.410;17.394;2022-12-07T15:12:50;22.40;41.50
43561;DHT22;32305;46.410;17.394;2022-12-07T15:15:17;22.40;41.70
43561;DHT22;32305;46.410;17.394;2022-12-07T15:17:44;22.40;41.70
43561;DHT22;32305;46.410;17.394;2022-12-07T15:20:14;22.40;41.80
43561;DHT22;32305;46.410;17.394;2022-12-07T15:22:43;22.40;41.70
43561;DHT22;32305;46.410;17.394;2022-12-07T15:25:13;22.30;41.70
43561;DHT22;32305;46.410;17.394;2022-12-07T15:27:40;22.40;41.80
43561;DHT22;32305;46.410;17.394;2022-12-07T15:30:08;22.40;41.80
43561;DHT22;32305;46.410;17.394;2022-12-07T15:32:35;22.40;41.90
43561;DHT22;32305;46.410;17.394;2022-12-07T15:35:02;22.40;42.00
43561;DHT22;32305;46.410;17.394;2022-12-07T15:37:31;22.40;41.90
43561;DHT22;32305;46.410;17.394;2022-12-07T15:39:58;22.40;41.90
43561;DHT22;32305;46.410;17.394;2022-12-07T15:42:33;22.30;41.90
43561;DHT22;32305;46.410;17.394;2022-12-07T15:45:00;22.30;42.50
43561;DHT22;32305;46.410;17.394;2022-12-07T15:47:38;22.20;41.90
43561;DHT22;32305;46.410;17.394;2022-12-07T15:50:25;22.20;41.90
43561;DHT22;32305;46.410;17.394;2022-12-07T15:52:53;22.10;41.90
43561;DHT22;32305;46.410;17.394;2022-12-07T15:55:20;22.10;42.00
43561;DHT22;32305;46.410;17.394;2022-12-07T15:57:47;22.10;42.10
43561;DHT22;32305;46.410;17.394;2022-12-07T16:00:16;22.00;42.20
43561;DHT22;32305;46.410;17.394;2022-12-07T16:02:43;22.00;42.30
43561;DHT22;32305;46.410;17.394;2022-12-07T16:05:10;22.00;42.50
43561;DHT22;32305;46.410;17.394;2022-12-07T16:07:37;21.90;42.60
43561;DHT22;32305;46.410;17.394;2022-12-07T16:10:05;21.90;42.70
43561;DHT22;32305;46.410;17.394;2022-12-07T16:12:32;21.80;42.80
43561;DHT22;32305;46.410;17.394;2022-12-07T16:14:59;21.80;43.00
43561;DHT22;32305;46.410;17.394;2022-12-07T16:17:27;21.80;43.10